KHST/HST METAR and TAF weather

Enter ICAO airport designator
Station Type Date Time Source
KHST METAR 2022/11/27 07:55 UTC NOAA

KHST 270755Z AUTO 14003KT 10SM CLR 25/23 A2998 RMK AO2 SLP156 T02460226


Station Type Date Time Source
KHST Decoded METAR 2022/11/27 07:55 UTC NOAA

Homestead Air Force Base, FL, United States (KHST) 25-29N 080-23W
Nov 27, 2022 - 02:55 AM EST / 2022.11.27 0755 UTC
Wind: from the SE (140 degrees) at 3 MPH (3 KT):0
Visibility: 10 mile(s):0
Sky conditions: clear
Temperature: 76.3 F (24.6 C)
Dew Point: 72.7 F (22.6 C)
Relative Humidity: 88%
Pressure (altimeter): 29.98 in. Hg (1015 hPa)
ob: KHST 270755Z AUTO 14003KT 10SM CLR 25/23 A2998 RMK AO2 SLP156 T02460226
cycle: 8

Station Type Date Time Source
KHST TAF 2022/11/27 04:58 UTC NOAA

TAF KHST 270400Z 2704/2810 VRB05KT 9999 SCT025 QNH2999INS
BECMG 2714/2715 20008KT 9999 FEW025 SCT045 QNH2996INS
BECMG 2723/2724 VRB05KT 9999 FEW025 SCT045 QNH3000INS TX30/2720Z TN23/2710Z

Example: see airport list